Time;durP1;ratioP1;P1;durP2;ratioP2;P2;SDS_P1;SDS_P2;PMS_P1;PMS_P2;Temp;Humidity;BMP_temperature;BMP_pressure;BME280_temperature;BME280_humidity;BME280_pressure;Samples;Min_cycle;Max_cycle;Signal;HPM_P1;HPM_P2
2023/02/06 00:00:38;;;;;;;0.70;0.70;;;2.00;99.90;;;;;;5048895;28;20045;-85
2023/02/06 00:03:04;;;;;;;0.70;0.70;;;2.10;99.90;;;;;;5034421;28;20037;-87
2023/02/06 00:05:30;;;;;;;0.77;0.77;;;2.30;99.90;;;;;;5031495;28;20045;-87
2023/02/06 00:07:55;;;;;;;0.70;0.70;;;2.00;99.90;;;;;;5047762;28;20045;-85
2023/02/06 00:10:22;;;;;;;0.63;0.63;;;2.00;99.90;;;;;;5030051;28;20040;-85
2023/02/06 00:12:47;;;;;;;0.80;0.80;;;2.10;99.90;;;;;;5049448;28;20029;-85
2023/02/06 00:15:13;;;;;;;0.60;0.60;;;2.10;99.90;;;;;;5025374;28;20139;-85
2023/02/06 00:17:39;;;;;;;0.50;0.50;;;2.50;99.90;;;;;;5046215;28;20722;-85
2023/02/06 00:20:06;;;;;;;0.60;0.60;;;2.10;99.90;;;;;;5024946;28;20033;-84
2023/02/06 00:22:32;;;;;;;0.50;0.50;;;2.00;99.90;;;;;;5031360;28;20041;-84
2023/02/06 00:24:58;;;;;;;;;;;1.90;99.90;;;;;;5048467;28;20048;-84
2023/02/06 00:27:24;;;;;;;0.60;0.60;;;1.90;99.90;;;;;;5044257;28;19921;-85
2023/02/06 00:29:49;;;;;;;0.63;0.63;;;1.90;99.90;;;;;;5024278;28;20044;-84
2023/02/06 00:32:15;;;;;;;0.73;0.73;;;2.00;99.90;;;;;;5031281;28;20504;-85
2023/02/06 00:34:41;;;;;;;0.60;0.60;;;2.00;99.90;;;;;;5033110;28;20044;-84
2023/02/06 00:37:07;;;;;;;0.60;0.60;;;3.40;99.90;;;;;;5039663;28;20041;-84
2023/02/06 00:39:32;;;;;;;0.70;0.70;;;3.20;99.90;;;;;;5043971;28;20049;-83
2023/02/06 00:41:58;;;;;;;0.52;0.52;;;2.10;99.90;;;;;;5049384;28;20049;-84
2023/02/06 00:44:24;;;;;;;0.77;0.77;;;2.20;99.90;;;;;;5046898;28;20033;-85
2023/02/06 00:46:50;;;;;;;0.60;0.60;;;2.50;99.90;;;;;;5048014;28;20082;-85
2023/02/06 00:49:15;;;;;;;1.00;1.00;;;3.40;99.90;;;;;;5054410;28;20086;-86
2023/02/06 00:51:41;;;;;;;3.50;1.33;;;2.20;99.90;;;;;;5025563;28;20053;-84
2023/02/06 00:54:07;;;;;;;0.70;0.70;;;2.90;99.90;;;;;;5023628;28;20044;-83
2023/02/06 00:56:33;;;;;;;0.77;0.77;;;2.30;99.90;;;;;;5042731;28;20131;-84
2023/02/06 00:58:59;;;;;;;0.70;0.70;;;2.70;99.90;;;;;;5018612;28;20152;-84
2023/02/06 01:01:26;;;;;;;;;;;2.40;99.90;;;;;;5030798;28;20052;-85
2023/02/06 01:03:52;;;;;;;0.80;0.80;;;2.90;99.90;;;;;;5046795;28;19923;-84
2023/02/06 01:06:17;;;;;;;;;;;2.40;99.90;;;;;;5038333;28;20120;-84
2023/02/06 01:08:44;;;;;;;0.90;0.90;;;3.20;99.90;;;;;;5043952;28;19996;-84
2023/02/06 01:11:16;;;;;;;0.60;0.60;;;2.40;99.90;;;;;;5054315;28;20043;-83
2023/02/06 01:13:42;;;;;;;0.63;0.63;;;2.30;99.90;;;;;;5042937;28;20142;-84
2023/02/06 01:16:15;;;;;;;0.60;0.60;;;2.30;99.90;;;;;;5024439;28;20456;-83
2023/02/06 01:18:41;;;;;;;0.63;0.63;;;2.30;99.90;;;;;;5038693;28;20124;-85
2023/02/06 01:21:12;;;;;;;0.65;0.65;;;3.00;99.90;;;;;;5037275;28;20116;-84
2023/02/06 01:23:41;;;;;;;0.57;0.57;;;2.60;99.90;;;;;;5046065;28;20049;-84
2023/02/06 01:26:09;;;;;;;1.02;1.02;;;3.10;99.90;;;;;;5044399;28;20029;-83
2023/02/06 01:28:36;;;;;;;0.70;0.70;;;3.70;99.90;;;;;;5045516;28;20045;-83
2023/02/06 01:31:16;;;;;;;0.70;0.70;;;2.40;99.90;;;;;;5029677;28;20048;-85
2023/02/06 01:33:44;;;;;;;0.57;0.57;;;2.40;99.90;;;;;;5044390;28;20489;-85
2023/02/06 01:36:10;;;;;;;0.70;0.70;;;2.50;99.90;;;;;;5032157;28;20179;-84
2023/02/06 01:38:36;;;;;;;0.80;0.80;;;2.40;99.90;;;;;;5051991;28;20059;-85
2023/02/06 01:41:02;;;;;;;0.70;0.70;;;2.40;99.90;;;;;;5032710;28;20948;-85
2023/02/06 01:43:32;;;;;;;0.65;0.65;;;2.40;99.90;;;;;;5042277;28;20039;-84
2023/02/06 01:45:58;;;;;;;5.85;2.55;;;2.90;99.90;;;;;;5040432;28;20041;-83
2023/02/06 01:48:39;;;;;;;0.60;0.60;;;2.50;99.90;;;;;;5031547;28;20056;-83
2023/02/06 01:51:09;;;;;;;1.38;1.27;;;2.60;99.90;;;;;;5054402;28;20470;-84
2023/02/06 01:53:35;;;;;;;0.70;0.70;;;2.60;99.90;;;;;;5050519;28;20452;-84
2023/02/06 01:56:03;;;;;;;;;;;2.60;99.90;;;;;;5053692;28;20045;-83
2023/02/06 01:58:32;;;;;;;0.70;0.70;;;3.50;99.90;;;;;;5051946;28;19920;-84
2023/02/06 02:00:59;;;;;;;0.52;0.52;;;2.60;99.90;;;;;;5052963;28;20045;-84
2023/02/06 02:03:26;;;;;;;0.68;0.68;;;2.40;99.90;;;;;;5027486;28;20483;-85
2023/02/06 02:05:57;;;;;;;0.60;0.60;;;2.30;99.90;;;;;;5035964;28;20519;-84
2023/02/06 02:08:44;;;;;;;0.70;0.70;;;2.30;99.90;;;;;;5055778;28;20087;-83
2023/02/06 02:11:15;;;;;;;0.60;0.60;;;2.60;99.90;;;;;;5031506;28;20121;-86
2023/02/06 02:13:42;;;;;;;0.70;0.70;;;2.50;99.90;;;;;;5046683;28;20106;-86
2023/02/06 02:16:22;;;;;;;0.70;0.70;;;3.30;99.90;;;;;;5027834;28;20398;-86
2023/02/06 02:19:16;;;;;;;0.60;0.60;;;2.40;99.90;;;;;;5022241;28;20049;-87
2023/02/06 02:22:06;;;;;;;0.50;0.50;;;2.30;99.90;;;;;;5042270;28;20084;-84
2023/02/06 02:24:58;;;;;;;0.73;0.73;;;2.40;99.90;;;;;;5049357;28;20033;-86
2023/02/06 02:27:35;;;;;;;1.55;1.55;;;2.30;99.90;;;;;;5048555;28;20544;-86
2023/02/06 02:30:22;;;;;;;0.70;0.70;;;2.30;99.90;;;;;;5047342;28;20066;-85
2023/02/06 02:33:26;;;;;;;0.65;0.65;;;2.20;99.90;;;;;;5047372;28;20033;-85
2023/02/06 02:36:16;;;;;;;0.60;0.60;;;2.00;99.90;;;;;;5033910;28;20045;-84
2023/02/06 02:39:02;;;;;;;0.70;0.70;;;1.90;99.90;;;;;;5045684;28;20063;-85
2023/02/06 02:41:38;;;;;;;0.70;0.70;;;1.80;99.90;;;;;;5049745;28;20048;-86
2023/02/06 02:44:09;;;;;;;0.65;0.65;;;1.80;99.90;;;;;;5033992;28;20135;-84
2023/02/06 02:46:41;;;;;;;0.70;0.70;;;1.70;99.90;;;;;;5050147;28;20052;-85
2023/02/06 02:49:15;;;;;;;0.60;0.60;;;1.60;99.90;;;;;;5027446;28;20049;-81
2023/02/06 02:51:41;;;;;;;0.60;0.60;;;1.60;99.90;;;;;;5052097;28;20049;-86
2023/02/06 02:54:08;;;;;;;0.70;0.70;;;1.60;99.90;;;;;;5050990;28;20063;-84
2023/02/06 02:56:33;;;;;;;0.60;0.60;;;1.60;99.90;;;;;;5024037;28;20044;-84
2023/02/06 02:59:09;;;;;;;0.50;0.50;;;1.50;99.90;;;;;;5021125;28;20056;-85
2023/02/06 03:01:48;;;;;;;0.70;0.70;;;1.50;99.90;;;;;;5048490;28;20049;-85
2023/02/06 03:04:25;;;;;;;0.50;0.50;;;1.50;99.90;;;;;;5031128;28;20141;-85
2023/02/06 03:07:18;;;;;;;0.57;0.57;;;1.40;99.90;;;;;;5053157;28;20115;-85
2023/02/06 03:10:12;;;;;;;0.60;0.60;;;1.40;99.90;;;;;;5043829;28;20094;-85
2023/02/06 03:12:48;;;;;;;0.50;0.50;;;1.30;99.90;;;;;;5030288;28;20052;-85
2023/02/06 03:15:46;;;;;;;0.80;0.80;;;1.30;99.90;;;;;;5047355;28;20216;-84
2023/02/06 03:18:21;;;;;;;0.70;0.70;;;1.40;99.90;;;;;;5034819;28;20075;-84
2023/02/06 03:20:48;;;;;;;0.70;0.70;;;1.40;99.90;;;;;;5048055;28;20140;-85
2023/02/06 03:23:19;;;;;;;0.68;0.68;;;1.30;99.90;;;;;;5038286;28;20139;-85
2023/02/06 03:25:48;;;;;;;0.70;0.70;;;1.30;99.90;;;;;;5037135;28;20156;-84
2023/02/06 03:28:22;;;;;;;0.60;0.60;;;1.20;99.90;;;;;;5040813;28;20083;-85
2023/02/06 03:30:52;;;;;;;0.70;0.70;;;1.10;99.90;;;;;;5054402;28;20051;-85
2023/02/06 03:33:24;;;;;;;0.70;0.70;;;2.10;99.90;;;;;;5052386;28;20390;-84
2023/02/06 03:35:50;;;;;;;0.60;0.60;;;1.90;99.90;;;;;;5046462;28;20093;-84
2023/02/06 03:38:16;;;;;;;0.70;0.70;;;1.20;99.90;;;;;;5031188;28;20405;-85
2023/02/06 03:40:46;;;;;;;0.65;0.65;;;1.30;99.90;;;;;;5045522;28;20574;-84
2023/02/06 03:43:17;;;;;;;0.73;0.73;;;2.10;99.90;;;;;;5035179;28;20032;-84
2023/02/06 03:45:46;;;;;;;0.75;0.75;;;1.30;99.90;;;;;;5028410;28;20048;-84
2023/02/06 03:48:31;;;;;;;0.60;0.60;;;1.30;99.90;;;;;;5057442;28;20041;-84
2023/02/06 03:51:02;;;;;;;0.70;0.70;;;1.40;99.90;;;;;;5047310;28;20054;-85
2023/02/06 03:53:28;;;;;;;0.70;0.70;;;2.50;99.90;;;;;;5048589;28;20051;-85
2023/02/06 03:55:58;;;;;;;0.80;0.80;;;1.80;99.90;;;;;;5042777;28;20048;-84
2023/02/06 03:58:24;;;;;;;0.70;0.70;;;2.00;99.90;;;;;;5050227;28;20364;-85
2023/02/06 04:00:51;;;;;;;0.63;0.63;;;1.90;99.90;;;;;;5043338;28;20044;-84
2023/02/06 04:03:18;;;;;;;0.70;0.70;;;2.00;99.90;;;;;;5042279;28;20044;-84
2023/02/06 04:05:44;;;;;;;0.80;0.80;;;2.00;99.90;;;;;;5028288;28;20493;-85
2023/02/06 04:08:10;;;;;;;0.80;0.80;;;2.00;99.90;;;;;;5046066;28;20069;-84
2023/02/06 04:10:36;;;;;;;0.70;0.70;;;2.00;99.90;;;;;;5020951;28;20051;-85
2023/02/06 04:13:01;;;;;;;0.70;0.70;;;2.00;99.90;;;;;;5024738;28;20045;-84
2023/02/06 04:15:27;;;;;;;0.77;0.77;;;3.20;99.90;;;;;;5047592;28;20110;-84
2023/02/06 04:17:53;;;;;;;0.68;0.68;;;2.50;99.90;;;;;;5040399;28;20072;-85
2023/02/06 04:20:19;;;;;;;0.70;0.70;;;1.90;99.90;;;;;;5029475;28;20033;-85
2023/02/06 04:22:45;;;;;;;0.60;0.60;;;2.00;99.90;;;;;;5017868;28;20033;-85
2023/02/06 04:25:11;;;;;;;0.57;0.57;;;2.20;99.90;;;;;;5023824;28;20087;-86
2023/02/06 04:27:37;;;;;;;0.70;0.70;;;2.10;99.90;;;;;;5052028;28;20056;-84
2023/02/06 04:30:05;;;;;;;0.70;0.70;;;2.20;99.90;;;;;;5030290;28;20037;-85
2023/02/06 04:32:33;;;;;;;0.63;0.63;;;2.30;99.90;;;;;;5048448;28;20510;-85
2023/02/06 04:34:59;;;;;;;0.70;0.70;;;3.20;99.90;;;;;;5029390;28;20071;-85
2023/02/06 04:37:25;;;;;;;1.45;1.05;;;2.50;99.90;;;;;;5050397;28;20371;-85
2023/02/06 04:39:50;;;;;;;0.70;0.70;;;2.60;99.90;;;;;;5021562;28;20095;-86
2023/02/06 04:42:16;;;;;;;0.70;0.70;;;2.60;99.90;;;;;;5026410;28;20526;-85
2023/02/06 04:44:42;;;;;;;0.60;0.60;;;2.70;99.90;;;;;;5013989;28;20040;-85
2023/02/06 04:47:07;;;;;;;0.70;0.70;;;3.20;99.90;;;;;;4997218;28;20041;-85
2023/02/06 04:49:33;;;;;;;0.60;0.60;;;3.50;99.90;;;;;;5032711;28;20526;-85
2023/02/06 04:51:59;;;;;;;0.70;0.70;;;2.60;99.90;;;;;;5026748;28;20045;-84
2023/02/06 04:54:24;;;;;;;0.80;0.80;;;3.00;99.90;;;;;;5050973;28;20470;-85
2023/02/06 04:56:50;;;;;;;0.50;0.50;;;3.60;99.90;;;;;;5050384;28;20041;-85
2023/02/06 04:59:16;;;;;;;0.60;0.60;;;2.70;99.90;;;;;;5015698;28;20041;-83
2023/02/06 05:01:42;;;;;;;0.80;0.80;;;3.40;99.90;;;;;;5047652;28;20041;-84
2023/02/06 05:04:07;;;;;;;0.80;0.80;;;3.50;99.90;;;;;;5009259;28;20068;-84
2023/02/06 05:06:33;;;;;;;0.70;0.70;;;2.60;99.90;;;;;;5043932;28;20033;-84
2023/02/06 05:09:01;;;;;;;0.70;0.70;;;2.60;99.90;;;;;;5043850;28;20044;-84
2023/02/06 05:11:26;;;;;;;0.65;0.65;;;2.60;99.90;;;;;;5043214;28;20144;-84
2023/02/06 05:13:52;;;;;;;0.60;0.60;;;3.00;99.90;;;;;;5051426;28;20587;-84
2023/02/06 05:16:18;;;;;;;0.80;0.80;;;2.50;99.90;;;;;;5029832;28;20037;-84
2023/02/06 05:18:44;;;;;;;0.60;0.60;;;2.50;99.90;;;;;;5045687;28;20159;-86
2023/02/06 05:21:11;;;;;;;0.70;0.70;;;2.40;99.90;;;;;;5038864;28;20094;-84
2023/02/06 05:23:37;;;;;;;0.70;0.70;;;2.40;99.90;;;;;;5042927;28;20045;-84
2023/02/06 05:26:03;;;;;;;0.70;0.70;;;2.40;99.90;;;;;;5050250;28;20043;-84
2023/02/06 05:28:32;;;;;;;;;;;2.40;99.90;;;;;;5051804;28;20041;-83
2023/02/06 05:30:58;;;;;;;1.83;1.52;;;2.30;99.90;;;;;;5049340;28;20582;-84
2023/02/06 05:33:25;;;;;;;0.60;0.60;;;2.90;99.90;;;;;;5049626;28;20049;-84
2023/02/06 05:35:50;;;;;;;0.70;0.70;;;2.40;99.90;;;;;;5041441;28;20041;-84
2023/02/06 05:38:16;;;;;;;0.70;0.70;;;2.70;99.90;;;;;;5045436;28;20485;-83
2023/02/06 05:40:42;;;;;;;1.15;1.15;;;2.50;99.90;;;;;;5032324;28;20508;-84
2023/02/06 05:43:08;;;;;;;0.60;0.60;;;2.60;99.90;;;;;;5015507;28;20104;-84
2023/02/06 05:45:34;;;;;;;1.60;1.52;;;2.70;99.90;;;;;;5047430;28;20052;-84
2023/02/06 05:48:00;;;;;;;0.60;0.60;;;2.80;99.90;;;;;;5048043;28;20037;-85
2023/02/06 05:50:25;;;;;;;0.70;0.70;;;2.70;99.90;;;;;;5046225;28;20064;-85
2023/02/06 05:52:51;;;;;;;0.70;0.70;;;2.80;99.90;;;;;;5032044;28;20043;-85
2023/02/06 05:55:17;;;;;;;1.20;1.20;;;2.80;99.90;;;;;;5048497;28;20086;-86
2023/02/06 05:57:43;;;;;;;0.52;0.52;;;2.90;99.90;;;;;;5030857;28;20052;-84
2023/02/06 06:00:10;;;;;;;0.68;0.68;;;3.60;99.90;;;;;;5048235;28;20707;-85
2023/02/06 06:02:36;;;;;;;0.60;0.60;;;2.80;99.90;;;;;;5032033;28;20498;-84
2023/02/06 06:05:02;;;;;;;0.70;0.70;;;2.90;99.90;;;;;;5040924;28;20045;-85
2023/02/06 06:07:28;;;;;;;;;;;3.00;99.90;;;;;;5049357;28;20040;-85
2023/02/06 06:09:53;;;;;;;0.80;0.80;;;3.00;99.90;;;;;;5048196;28;19928;-85
2023/02/06 06:12:19;;;;;;;0.60;0.60;;;3.90;99.90;;;;;;5048730;28;20051;-84
2023/02/06 06:14:45;;;;;;;0.75;0.75;;;3.20;99.90;;;;;;5047527;28;20048;-85
2023/02/06 06:17:10;;;;;;;0.70;0.70;;;3.20;99.90;;;;;;5042079;28;20080;-85
2023/02/06 06:19:36;;;;;;;0.60;0.60;;;3.90;99.90;;;;;;5048432;28;20049;-84
2023/02/06 06:22:02;;;;;;;0.70;0.70;;;3.20;99.90;;;;;;5044535;28;20442;-84
2023/02/06 06:24:28;;;;;;;0.75;0.75;;;3.20;99.90;;;;;;5022262;28;20032;-85
2023/02/06 06:26:53;;;;;;;0.60;0.60;;;3.30;99.90;;;;;;5046250;28;20075;-85
2023/02/06 06:29:19;;;;;;;0.63;0.63;;;3.30;99.90;;;;;;5025299;28;20757;-85
2023/02/06 06:31:45;;;;;;;0.70;0.70;;;3.30;99.90;;;;;;5030922;28;20040;-82
2023/02/06 06:34:10;;;;;;;0.70;0.70;;;3.30;99.90;;;;;;5033936;28;20045;-85
2023/02/06 06:36:36;;;;;;;0.60;0.60;;;3.30;99.90;;;;;;5043822;28;20078;-83
2023/02/06 06:39:02;;;;;;;0.60;0.60;;;4.20;99.90;;;;;;5049148;28;20473;-84
2023/02/06 06:41:28;;;;;;;0.60;0.60;;;3.30;99.90;;;;;;5029242;28;20051;-83
2023/02/06 06:43:55;;;;;;;0.70;0.70;;;3.90;99.90;;;;;;5045656;28;20041;-85
2023/02/06 06:46:21;;;;;;;0.70;0.70;;;3.30;99.90;;;;;;5030814;28;20052;-85
2023/02/06 06:48:47;;;;;;;;;;;3.20;99.90;;;;;;5042479;28;20053;-85
2023/02/06 06:51:13;;;;;;;0.60;0.60;;;3.20;99.90;;;;;;5048525;28;19939;-85
2023/02/06 06:53:38;;;;;;;0.50;0.50;;;3.20;99.90;;;;;;5034341;28;20050;-86
2023/02/06 06:56:12;;;;;;;0.60;0.60;;;3.20;99.90;;;;;;5030709;28;20060;-86
2023/02/06 06:58:38;;;;;;;0.70;0.70;;;3.30;99.90;;;;;;5030352;28;20041;-85
2023/02/06 07:01:03;;;;;;;;;;;3.20;99.90;;;;;;5039242;28;20041;-85
2023/02/06 07:03:30;;;;;;;0.70;0.70;;;3.20;99.90;;;;;;5044884;28;19923;-84
2023/02/06 07:05:55;;;;;;;0.60;0.60;;;3.10;99.90;;;;;;5051397;28;20041;-85
2023/02/06 07:08:21;;;;;;;0.60;0.60;;;4.30;99.90;;;;;;5036549;28;20041;-85
2023/02/06 07:10:47;;;;;;;0.70;0.70;;;3.30;99.90;;;;;;5045740;28;20042;-84
2023/02/06 07:13:14;;;;;;;0.80;0.80;;;3.00;99.90;;;;;;5053102;28;20044;-83
2023/02/06 07:15:41;;;;;;;0.60;0.60;;;3.00;99.90;;;;;;5038749;28;20053;-84
2023/02/06 07:18:07;;;;;;;0.60;0.60;;;3.10;99.90;;;;;;5039897;28;20128;-86
2023/02/06 07:20:33;;;;;;;0.75;0.75;;;3.30;99.90;;;;;;5042401;28;20450;-84
2023/02/06 07:23:00;;;;;;;0.57;0.57;;;3.10;99.90;;;;;;5047757;28;20124;-85
2023/02/06 07:25:26;;;;;;;0.60;0.60;;;4.30;99.90;;;;;;5047660;28;20037;-84
2023/02/06 07:27:52;;;;;;;0.60;0.60;;;3.10;99.90;;;;;;5040468;28;20045;-86
2023/02/06 07:30:18;;;;;;;0.57;0.57;;;3.20;99.90;;;;;;5052668;28;20064;-84
2023/02/06 07:32:44;;;;;;;0.60;0.60;;;3.10;99.90;;;;;;5052512;28;20044;-84
2023/02/06 07:35:09;;;;;;;0.70;0.70;;;3.10;99.90;;;;;;5044943;28;20048;-85
2023/02/06 07:37:35;;;;;;;0.70;0.70;;;3.10;99.90;;;;;;5052140;28;20445;-84
2023/02/06 07:40:02;;;;;;;0.70;0.70;;;3.40;99.90;;;;;;5052521;28;20060;-85
2023/02/06 07:42:27;;;;;;;0.68;0.68;;;3.30;99.90;;;;;;5035935;28;20087;-85
2023/02/06 07:44:53;;;;;;;0.70;0.70;;;3.90;99.90;;;;;;5035219;28;20470;-85
2023/02/06 07:47:19;;;;;;;0.60;0.60;;;3.70;99.90;;;;;;5031842;28;20037;-86
2023/02/06 07:49:45;;;;;;;1.23;1.23;;;3.40;99.90;;;;;;5045679;28;20146;-86
2023/02/06 07:52:11;;;;;;;0.60;0.60;;;4.10;99.90;;;;;;5016343;28;20079;-84
2023/02/06 07:54:36;;;;;;;0.60;0.60;;;3.60;99.90;;;;;;5050310;28;20447;-85
2023/02/06 07:57:02;;;;;;;0.70;0.70;;;3.90;99.90;;;;;;5032780;28;20053;-84
2023/02/06 07:59:28;;;;;;;1.02;1.02;;;3.40;99.90;;;;;;5050792;28;20477;-86
2023/02/06 08:01:53;;;;;;;0.70;0.70;;;3.40;99.90;;;;;;5031822;28;20036;-84
2023/02/06 08:04:19;;;;;;;0.60;0.60;;;4.30;99.90;;;;;;5047266;28;20033;-87
2023/02/06 08:06:45;;;;;;;0.60;0.60;;;3.70;99.90;;;;;;5032153;28;20041;-87
2023/02/06 08:09:17;;;;;;;0.50;0.50;;;3.60;99.90;;;;;;5014697;28;20037;-87
2023/02/06 08:11:43;;;;;;;0.60;0.60;;;4.40;99.90;;;;;;5050252;28;20048;-86
2023/02/06 08:14:09;;;;;;;;;;;3.70;99.90;;;;;;5034872;28;20048;-87
2023/02/06 08:16:35;;;;;;;0.90;0.90;;;4.40;99.90;;;;;;5047685;28;20055;-88
2023/02/06 08:19:00;;;;;;;1.63;1.52;;;3.80;99.90;;;;;;5035226;28;20499;-87
2023/02/06 08:21:26;;;;;;;0.60;0.60;;;3.90;99.90;;;;;;5046834;28;20041;-86
2023/02/06 08:23:54;;;;;;;0.70;0.70;;;3.90;99.90;;;;;;5048262;28;20064;-85
2023/02/06 08:26:20;;;;;;;0.65;0.65;;;4.00;99.90;;;;;;5046067;28;20037;-86
2023/02/06 08:28:48;;;;;;;1.02;1.02;;;3.90;99.90;;;;;;5061307;28;20064;-86
2023/02/06 08:31:17;;;;;;;0.50;0.50;;;4.80;99.90;;;;;;5038215;28;20048;-88
2023/02/06 08:33:44;;;;;;;0.60;0.60;;;4.00;99.90;;;;;;5028715;28;20128;-86
2023/02/06 08:36:11;;;;;;;0.70;0.70;;;4.40;99.90;;;;;;5048605;28;20071;-86
2023/02/06 08:38:37;;;;;;;0.70;0.70;;;4.10;99.90;;;;;;5049958;28;20052;-87
2023/02/06 08:41:04;;;;;;;0.50;0.50;;;4.10;99.90;;;;;;5045691;28;20158;-86
2023/02/06 08:43:30;;;;;;;0.85;0.85;;;4.50;99.90;;;;;;5031434;28;20037;-88
2023/02/06 08:45:58;;;;;;;1.50;1.50;;;4.70;99.90;;;;;;5041677;28;20051;-88
2023/02/06 08:48:25;;;;;;;0.70;0.70;;;4.10;99.90;;;;;;5029478;28;20040;-86
2023/02/06 08:51:01;;;;;;;0.65;0.65;;;4.20;99.90;;;;;;5040817;28;20080;-87
2023/02/06 08:53:26;;;;;;;0.60;0.60;;;4.20;99.90;;;;;;5049732;28;20383;-86
2023/02/06 08:56:04;;;;;;;0.60;0.60;;;4.30;99.90;;;;;;5033381;28;20037;-88
2023/02/06 08:58:30;;;;;;;1.45;1.45;;;4.30;99.90;;;;;;5049369;28;20037;-86
2023/02/06 09:00:56;;;;;;;0.60;0.60;;;4.40;99.90;;;;;;5047187;28;20073;-86
2023/02/06 09:03:21;;;;;;;;;;;4.40;99.90;;;;;;5046027;28;20037;-87
2023/02/06 09:05:48;;;;;;;0.50;0.50;;;4.50;99.90;;;;;;5042447;28;20339;-87
2023/02/06 09:08:15;;;;;;;0.70;0.70;;;5.00;99.90;;;;;;5040538;28;20124;-87
2023/02/06 09:10:40;;;;;;;2.30;2.20;;;4.50;99.90;;;;;;5046818;28;20045;-87
2023/02/06 09:13:06;;;;;;;0.50;0.50;;;5.30;99.90;;;;;;5036531;28;20044;-89
2023/02/06 09:15:32;;;;;;;0.60;0.60;;;4.70;99.90;;;;;;5047791;28;20086;-86
2023/02/06 09:17:58;;;;;;;0.80;0.80;;;4.70;99.90;;;;;;5046554;28;20717;-86
2023/02/06 09:20:25;;;;;;;0.98;0.98;;;4.80;99.90;;;;;;5032669;28;20068;-88
2023/02/06 09:22:51;;;;;;;0.60;0.60;;;4.80;99.90;;;;;;5032813;28;20444;-86
2023/02/06 09:25:17;;;;;;;0.50;0.50;;;5.00;99.90;;;;;;5027202;28;20037;-86
2023/02/06 09:27:45;;;;;;;0.60;0.60;;;5.30;99.90;;;;;;5043810;28;20033;-88
2023/02/06 09:30:13;;;;;;;0.50;0.50;;;5.00;99.90;;;;;;5047236;28;20087;-86
2023/02/06 09:32:39;;;;;;;0.60;0.60;;;5.10;99.90;;;;;;5050491;28;20076;-86
2023/02/06 09:35:05;;;;;;;0.60;0.60;;;5.10;99.90;;;;;;5027608;28;20573;-86
2023/02/06 09:37:30;;;;;;;;;;;5.10;99.90;;;;;;5045208;28;20049;-84
2023/02/06 09:39:56;;;;;;;0.60;0.60;;;5.10;99.90;;;;;;5062014;28;19932;-85
2023/02/06 09:42:35;;;;;;;0.60;0.60;;;5.10;99.90;;;;;;5062068;28;20041;-83
2023/02/06 09:45:18;;;;;;;2.03;1.95;;;5.20;99.90;;;;;;5037099;28;20482;-88
2023/02/06 09:48:12;;;;;;;0.80;0.80;;;5.10;99.90;;;;;;5051528;28;20035;-86
2023/02/06 09:50:57;;;;;;;0.60;0.60;;;5.20;99.90;;;;;;5025946;28;20077;-86
2023/02/06 09:53:28;;;;;;;0.60;0.60;;;5.20;99.90;;;;;;5039626;28;20199;-87
2023/02/06 09:56:43;;;;;;;1.00;1.00;;;5.40;99.90;;;;;;5045899;28;20057;-89
2023/02/06 09:59:09;;;;;;;1.15;1.15;;;5.40;99.90;;;;;;5047382;28;20045;-87
2023/02/06 10:01:53;;;;;;;0.63;0.63;;;5.50;99.90;;;;;;5046167;28;20037;-86
2023/02/06 10:04:41;;;;;;;0.70;0.70;;;5.50;99.90;;;;;;5049125;28;20403;-88
2023/02/06 10:07:43;;;;;;;0.50;0.50;;;5.60;99.90;;;;;;5050518;28;20037;-84
2023/02/06 10:10:43;;;;;;;0.50;0.50;;;5.80;99.90;;;;;;5046250;28;20037;-88
2023/02/06 10:13:15;;;;;;;0.50;0.50;;;5.90;99.90;;;;;;5033993;28;20474;-87
2023/02/06 10:15:45;;;;;;;0.50;0.50;;;5.90;99.90;;;;;;5034308;28;20075;-89
2023/02/06 10:18:27;;;;;;;0.45;0.45;;;6.00;99.90;;;;;;5041025;28;20091;-88
2023/02/06 10:20:58;;;;;;;1.00;1.00;;;6.10;99.90;;;;;;5037866;28;20068;-89
2023/02/06 10:23:41;;;;;;;0.50;0.50;;;6.60;99.90;;;;;;5045857;28;20047;-86
2023/02/06 10:26:17;;;;;;;0.60;0.60;;;6.20;99.90;;;;;;5057015;28;20482;-87
2023/02/06 10:28:57;;;;;;;0.60;0.60;;;6.20;99.90;;;;;;5054011;28;20462;-87
2023/02/06 10:31:23;;;;;;;0.60;0.60;;;6.20;99.90;;;;;;5056626;28;20364;-87
2023/02/06 10:34:19;;;;;;;0.50;0.50;;;6.20;99.90;;;;;;5054727;28;20037;-90
2023/02/06 10:36:54;;;;;;;0.60;0.60;;;6.20;99.90;;;;;;5054409;28;20036;-89
2023/02/06 10:39:31;;;;;;;0.50;0.50;;;6.30;99.90;;;;;;5053992;28;20045;-89
2023/02/06 10:42:06;;;;;;;0.93;0.93;;;6.40;99.90;;;;;;5035007;28;20041;-91
2023/02/06 10:44:50;;;;;;;0.50;0.50;;;6.60;99.90;;;;;;5037656;28;20086;-88
2023/02/06 10:47:38;;;;;;;0.85;0.85;;;6.70;99.90;;;;;;5037081;28;20037;-89
2023/02/06 10:50:28;;;;;;;0.50;0.50;;;6.90;99.90;;;;;;5036298;28;20045;-89
2023/02/06 10:53:31;;;;;;;0.52;0.52;;;7.00;99.90;;;;;;5052042;28;20389;-87
2023/02/06 10:56:08;;;;;;;0.50;0.50;;;7.10;99.90;;;;;;5039709;28;20053;-91
2023/02/06 10:58:47;;;;;;;0.50;0.50;;;7.10;99.90;;;;;;5036772;28;20037;-87
2023/02/06 11:01:14;;;;;;;1.02;1.02;;;7.10;99.90;;;;;;5053912;28;20098;-87
2023/02/06 11:03:47;;;;;;;0.40;0.40;;;7.20;99.90;;;;;;5053900;28;20067;-89
2023/02/06 11:06:19;;;;;;;0.50;0.50;;;7.20;99.90;;;;;;5032417;28;20038;-88
2023/02/06 11:08:46;;;;;;;0.63;0.63;;;7.20;99.90;;;;;;5040256;28;20037;-89
2023/02/06 11:11:19;;;;;;;0.45;0.45;;;7.30;99.90;;;;;;5039612;28;20041;-89
2023/02/06 11:13:50;;;;;;;0.45;0.45;;;7.20;99.90;;;;;;5036180;28;20633;-87
2023/02/06 11:16:25;;;;;;;0.60;0.60;;;7.20;99.90;;;;;;5046564;28;20037;-89
2023/02/06 11:18:52;;;;;;;0.50;0.50;;;7.20;99.90;;;;;;5035883;28;20037;-86
2023/02/06 11:21:49;;;;;;;0.88;0.88;;;6.90;99.90;;;;;;5054079;28;20402;-84
2023/02/06 11:24:18;;;;;;;0.50;0.50;;;6.90;99.90;;;;;;5047778;28;20530;-85
2023/02/06 11:26:52;;;;;;;0.45;0.45;;;6.90;99.90;;;;;;5034474;28;20064;-85
2023/02/06 11:29:22;;;;;;;0.57;0.57;;;6.90;99.90;;;;;;5032101;28;20036;-85
2023/02/06 11:31:55;;;;;;;0.50;0.50;;;7.00;99.90;;;;;;5051814;28;20589;-85
2023/02/06 11:34:34;;;;;;;0.63;0.63;;;7.10;99.90;;;;;;5048222;28;21073;-85
2023/02/06 11:37:24;;;;;;;0.60;0.60;;;7.30;99.90;;;;;;5044434;28;20052;-86
2023/02/06 11:39:49;;;;;;;0.70;0.70;;;7.40;99.90;;;;;;5045093;28;20540;-85
2023/02/06 11:42:21;;;;;;;0.50;0.50;;;7.40;99.90;;;;;;5050279;28;20036;-85
2023/02/06 11:44:50;;;;;;;0.50;0.50;;;7.40;99.90;;;;;;5033260;28;20091;-85
2023/02/06 11:47:37;;;;;;;0.40;0.40;;;7.40;99.90;;;;;;5050552;28;20033;-85
2023/02/06 11:50:11;;;;;;;0.60;0.60;;;7.40;99.90;;;;;;5049483;28;20057;-85
2023/02/06 11:52:38;;;;;;;1.27;1.27;;;7.40;99.90;;;;;;5046293;28;20084;-84
2023/02/06 11:55:04;;;;;;;0.40;0.40;;;7.50;99.90;;;;;;5033223;28;20166;-86
2023/02/06 11:57:32;;;;;;;0.50;0.50;;;7.50;99.90;;;;;;5043536;28;20042;-86
2023/02/06 12:00:00;;;;;;;0.50;0.50;;;7.50;99.90;;;;;;5040445;28;20048;-86
2023/02/06 12:02:34;;;;;;;0.60;0.60;;;7.50;99.90;;;;;;5027949;28;20068;-85
2023/02/06 12:05:20;;;;;;;1.08;1.08;;;7.70;99.90;;;;;;5028350;28;20124;-86
2023/02/06 12:08:01;;;;;;;0.50;0.50;;;7.60;99.90;;;;;;5037048;28;20036;-85
2023/02/06 12:10:30;;;;;;;0.65;0.65;;;7.60;99.90;;;;;;5049758;28;20178;-85
2023/02/06 12:13:35;;;;;;;0.50;0.50;;;7.60;99.90;;;;;;5049739;28;20036;-86
2023/02/06 12:16:04;;;;;;;0.50;0.50;;;7.60;99.90;;;;;;5033231;28;20040;-85
2023/02/06 12:18:37;;;;;;;0.40;0.40;;;7.60;99.90;;;;;;5043415;28;20041;-84
2023/02/06 12:21:12;;;;;;;0.50;0.50;;;7.50;99.90;;;;;;5045596;28;20417;-85
2023/02/06 12:23:42;;;;;;;0.60;0.60;;;7.50;99.90;;;;;;5046377;28;20025;-85
2023/02/06 12:26:18;;;;;;;0.43;0.43;;;7.40;99.90;;;;;;5048801;28;20055;-85
2023/02/06 12:29:14;;;;;;;0.50;0.50;;;7.40;99.90;;;;;;5047157;28;20076;-84
2023/02/06 12:31:46;;;;;;;0.55;0.55;;;7.40;99.90;;;;;;5043137;28;20528;-85
2023/02/06 12:34:19;;;;;;;0.57;0.57;;;7.50;99.90;;;;;;5041335;28;20037;-85
2023/02/06 12:36:57;;;;;;;0.50;0.50;;;7.50;99.90;;;;;;5042634;28;20505;-84
2023/02/06 12:39:23;;;;;;;0.50;0.50;;;7.40;99.90;;;;;;5031075;28;20044;-88
2023/02/06 12:42:03;;;;;;;0.43;0.43;;;7.50;99.90;;;;;;5034038;28;20048;-89
2023/02/06 12:44:51;;;;;;;0.52;0.52;;;7.50;99.90;;;;;;5041083;28;20052;-90
2023/02/06 12:47:35;;;;;;;0.50;0.50;;;7.60;99.90;;;;;;5033988;28;20044;-90
2023/02/06 12:50:10;;;;;;;0.70;0.70;;;7.60;99.90;;;;;;5046644;28;20057;-89
2023/02/06 12:53:04;;;;;;;0.50;0.50;;;7.60;99.90;;;;;;5027819;28;20045;-89
2023/02/06 12:55:43;;;;;;;0.40;0.40;;;7.70;99.90;;;;;;5023999;28;20069;-90
2023/02/06 12:58:32;;;;;;;0.45;0.45;;;7.70;99.90;;;;;;5049694;28;20075;-89
2023/02/06 13:01:08;;;;;;;0.50;0.50;;;7.80;99.90;;;;;;5054763;28;20071;-89
2023/02/06 13:03:48;;;;;;;0.98;0.98;;;7.90;99.90;;;;;;5031959;28;20044;-90
2023/02/06 13:06:31;;;;;;;0.50;0.50;;;7.90;99.90;;;;;;5052576;28;20441;-89
2023/02/06 13:09:04;;;;;;;0.40;0.40;;;7.90;99.90;;;;;;5039223;28;20037;-88
2023/02/06 13:11:37;;;;;;;0.57;0.57;;;7.90;99.90;;;;;;5044374;28;20127;-89
2023/02/06 13:14:22;;;;;;;0.50;0.50;;;7.90;99.90;;;;;;5039043;28;20099;-89
2023/02/06 13:16:55;;;;;;;1.02;1.02;;;7.90;99.90;;;;;;5037552;28;20481;-90
2023/02/06 13:19:26;;;;;;;0.60;0.60;;;7.80;99.90;;;;;;5032864;28;20040;-88